Chronik & Geschichte

Boeing Stearman am Flugplatz Konstanz

Mit seiner 107-jährigen Geschichte ist Konstanz der älteste Verkehrslandeplatz Deutschlands. Lesen Sie unsere Festschrift zum 100-jährigen Platzjubiläum oder entdecken Sie die ausführliche Flugplatzchronik auf der Website der Initiative PRO Flugplatz Konstanz.

Live am Platz

Die Bilder unserer Webcams werden alle 5 Minuten aktualisiert.

Sonnenaufgang:

06:24 UTC / 07:24 Lokal

Sonnenuntergang:

16:49 UTC / 17:49 Lokal

METAR (17.02.2020 18:50 UTC):

EDNY 171850Z 24012KT 9999 -RA BKN022 OVC027 07/05 Q1023
MVFR

TAF (17.02.2020 17:00 UTC):

TAF EDNY 171700Z 1718/1818 24010KT 9999 FEW020 BKN030 BECMG 1816/1818 24005KT

Alle Angaben unverbindlich und ohne Gewähr. Zeiten genähert.

Für den Verkehrslandeplatz Konstanz werden keine offiziellen Wetterinformationen ausgegeben. Daher werden zur Orientierung Daten des nahegelegenen Flughafens Friedrichshafen dargestellt.

Flugwetterdaten zur Verfügung gestellt von wippich.aero.